createdAt,value
2017-08-03T00:00:25.551Z,24.93
2017-08-03T00:01:35.781Z,24.9
2017-08-03T00:02:45.719Z,24.96
2017-08-03T00:03:55.639Z,24.99
2017-08-03T00:05:05.265Z,24.98
2017-08-03T00:06:14.886Z,24.95
2017-08-03T00:07:25.122Z,25.02
2017-08-03T00:08:35.034Z,25.08
2017-08-03T00:09:45.260Z,24.98
2017-08-03T00:10:54.874Z,24.95
2017-08-03T00:12:04.791Z,25
2017-08-03T00:13:14.720Z,25.03
2017-08-03T00:14:24.648Z,25.06
2017-08-03T00:15:34.299Z,24.95
2017-08-03T00:16:44.530Z,24.99
2017-08-03T00:17:54.373Z,25.02
2017-08-03T00:19:04.641Z,24.88
2017-08-03T00:20:14.579Z,24.91
2017-08-03T00:21:24.507Z,24.9
2017-08-03T00:22:34.756Z,24.88
2017-08-03T00:23:44.061Z,24.93
2017-08-03T00:24:54.020Z,24.78
2017-08-03T00:26:04.251Z,24.88
2017-08-03T00:27:14.177Z,24.95
2017-08-03T00:28:23.808Z,24.91
2017-08-03T00:29:34.063Z,24.95
2017-08-03T00:30:44.005Z,24.9
2017-08-03T00:31:53.924Z,24.93
2017-08-03T00:33:04.154Z,24.91
2017-08-03T00:34:14.107Z,24.95
2017-08-03T00:35:24.339Z,24.93
2017-08-03T00:36:33.980Z,24.88
2017-08-03T00:37:43.939Z,24.87
2017-08-03T00:38:54.162Z,24.83
2017-08-03T00:40:04.084Z,24.8
2017-08-03T00:41:14.011Z,24.8
2017-08-03T00:42:23.960Z,24.8
2017-08-03T00:43:33.571Z,24.76
2017-08-03T00:44:43.806Z,24.81
2017-08-03T00:45:53.730Z,24.77
2017-08-03T00:47:03.964Z,24.71
2017-08-03T00:48:13.569Z,24.87
2017-08-03T00:49:23.182Z,24.78
2017-08-03T00:50:33.101Z,24.73
2017-08-03T00:51:43.338Z,24.78
2017-08-03T00:52:53.263Z,24.78
2017-08-03T00:54:03.880Z,24.81
2017-08-03T00:55:14.106Z,24.77
2017-08-03T00:56:23.724Z,24.77
2017-08-03T00:57:33.950Z,24.68
2017-08-03T00:58:43.898Z,24.68
2017-08-03T00:59:53.835Z,24.64
2017-08-03T01:01:03.760Z,24.65
2017-08-03T01:02:14.003Z,24.58
2017-08-03T01:03:23.633Z,24.65
2017-08-03T01:04:33.580Z,24.67
2017-08-03T01:05:43.499Z,24.68
2017-08-03T01:06:53.129Z,24.61
2017-08-03T01:08:03.070Z,24.6
2017-08-03T01:09:12.685Z,24.67
2017-08-03T01:10:22.916Z,24.67
2017-08-03T01:11:33.141Z,24.67
2017-08-03T01:12:42.756Z,24.64
2017-08-03T01:13:52.667Z,24.73
2017-08-03T01:15:02.898Z,24.68
2017-08-03T01:22:33.422Z,24.6
2017-08-03T01:23:43.349Z,24.53
2017-08-03T01:24:53.275Z,24.58
2017-08-03T01:26:03.514Z,24.47
2017-08-03T01:27:13.438Z,24.47
2017-08-03T01:28:23.681Z,24.47
2017-08-03T01:29:33.607Z,24.47
2017-08-03T01:30:43.532Z,24.47
2017-08-03T01:31:53.464Z,24.55
2017-08-03T01:33:03.699Z,24.57
2017-08-03T01:34:13.336Z,24.52
2017-08-03T01:35:23.266Z,24.64
2017-08-03T01:36:32.894Z,24.53
2017-08-03T01:37:43.120Z,24.52
2017-08-03T01:38:52.763Z,24.58
2017-08-03T01:40:02.392Z,24.58
2017-08-03T01:41:12.327Z,24.58
2017-08-03T01:42:22.587Z,24.53
2017-08-03T01:43:32.498Z,24.5
2017-08-03T01:44:42.139Z,24.46
2017-08-03T01:45:52.102Z,24.42
2017-08-03T01:47:02.048Z,24.5
2017-08-03T01:48:11.673Z,24.53
2017-08-03T01:49:21.280Z,24.46
2017-08-03T01:50:31.243Z,24.47
2017-08-03T01:51:41.469Z,24.46
2017-08-03T01:52:51.092Z,24.47
2017-08-03T01:54:01.033Z,24.45
2017-08-03T01:55:10.949Z,24.42
2017-08-03T01:56:21.185Z,24.43
2017-08-03T01:57:30.815Z,24.45
2017-08-03T01:58:41.039Z,24.42
2017-08-03T01:59:51.296Z,24.43
2017-08-03T02:01:00.611Z,24.3
2017-08-03T02:02:10.835Z,24.46
2017-08-03T02:03:20.760Z,24.42
2017-08-03T02:04:30.693Z,24.46
2017-08-03T02:05:40.322Z,24.45
2017-08-03T02:06:50.283Z,24.32
2017-08-03T02:07:59.603Z,24.35
2017-08-03T02:09:09.537Z,24.47
2017-08-03T02:10:19.806Z,24.34
2017-08-03T02:11:29.752Z,24.42
2017-08-03T02:12:39.988Z,24.43
2017-08-03T02:13:49.609Z,24.32
2017-08-03T02:14:58.915Z,24.46
2017-08-03T02:16:09.145Z,24.4
2017-08-03T02:17:19.070Z,24.39
2017-08-03T02:18:28.986Z,24.37
2017-08-03T02:19:39.221Z,24.47
2017-08-03T02:20:49.138Z,24.43
2017-08-03T02:21:58.745Z,24.42
2017-08-03T02:23:08.964Z,24.43
2017-08-03T02:24:18.592Z,24.39
2017-08-03T02:25:28.508Z,24.47
2017-08-03T02:26:38.642Z,24.46
2017-08-03T02:27:48.870Z,24.42
2017-08-03T02:28:59.113Z,24.37
2017-08-03T02:30:09.339Z,24.46
2017-08-03T02:31:19.571Z,24.34
2017-08-03T02:32:29.498Z,24.28
2017-08-03T02:33:39.114Z,24.42
2017-08-03T02:34:49.038Z,24.43
2017-08-03T02:35:58.655Z,24.37
2017-08-03T02:37:07.957Z,24.32
2017-08-03T02:38:18.184Z,24.35
2017-08-03T02:39:28.108Z,24.31
2017-08-03T02:40:37.730Z,24.47
2017-08-03T02:41:47.347Z,24.39
2017-08-03T02:42:57.598Z,24.49
2017-08-03T02:44:07.532Z,24.43
2017-08-03T02:45:17.178Z,24.46
2017-08-03T02:46:27.445Z,24.42
2017-08-03T02:47:37.714Z,24.39
2017-08-03T02:48:47.948Z,24.4
2017-08-03T02:49:57.877Z,24.43
2017-08-03T02:51:08.114Z,24.49
2017-08-03T02:52:17.760Z,24.46
2017-08-03T02:53:27.695Z,24.46
2017-08-03T02:54:37.626Z,24.46
2017-08-03T02:55:47.866Z,24.5
2017-08-03T02:56:58.117Z,24.45
2017-08-03T02:58:08.036Z,24.4
2017-08-03T02:59:17.966Z,24.47
2017-08-03T03:00:27.888Z,24.46
2017-08-03T03:01:37.801Z,24.37
2017-08-03T03:02:47.718Z,24.46
2017-08-03T03:03:57.661Z,24.35
2017-08-03T03:05:07.297Z,24.43
2017-08-03T03:06:17.223Z,24.46
2017-08-03T03:07:27.174Z,24.4
2017-08-03T03:08:37.417Z,24.31
2017-08-03T03:09:47.683Z,24.5
2017-08-03T03:10:57.632Z,24.39
2017-08-03T03:12:07.888Z,24.37
2017-08-03T03:13:18.166Z,24.31
2017-08-03T03:14:28.089Z,24.31
2017-08-03T03:15:37.711Z,24.42
2017-08-03T03:16:47.954Z,24.46
2017-08-03T03:17:58.184Z,24.32
2017-08-03T03:19:08.413Z,24.37
2017-08-03T03:20:18.323Z,24.52
2017-08-03T03:21:28.568Z,24.34
2017-08-03T03:22:37.886Z,24.27
2017-08-03T03:23:47.824Z,24.39
2017-08-03T03:24:57.753Z,24.45
2017-08-03T03:26:07.998Z,24.31
2017-08-03T03:27:17.596Z,24.42
2017-08-03T03:28:27.240Z,24.45
2017-08-03T03:29:37.495Z,24.43
2017-08-03T03:30:47.763Z,24.34
2017-08-03T03:31:58.006Z,24.43
2017-08-03T03:33:07.912Z,24.4
2017-08-03T03:34:17.556Z,24.42
2017-08-03T03:35:27.785Z,24.4
2017-08-03T03:36:38.036Z,24.47
2017-08-03T03:37:47.959Z,24.47
2017-08-03T03:38:58.188Z,24.42
2017-08-03T03:40:08.419Z,24.53
2017-08-03T03:41:18.353Z,24.53
2017-08-03T03:42:27.976Z,24.52
2017-08-03T03:43:37.896Z,24.46
2017-08-03T03:44:47.517Z,24.46
2017-08-03T03:45:57.140Z,24.47
2017-08-03T03:47:07.374Z,24.47
2017-08-03T03:48:17.603Z,24.45
2017-08-03T03:49:27.853Z,24.39
2017-08-03T03:50:37.172Z,24.42
2017-08-03T03:51:46.813Z,24.45
2017-08-03T03:52:56.751Z,24.37
2017-08-03T03:54:06.382Z,24.32
2017-08-03T03:55:16.299Z,24.34
2017-08-03T03:56:26.218Z,24.46
2017-08-03T03:57:35.839Z,24.39
2017-08-03T03:58:45.765Z,24.5
2017-08-03T03:59:55.396Z,24.46
2017-08-03T04:01:05.321Z,24.47
2017-08-03T04:02:15.576Z,24.49
2017-08-03T04:03:25.198Z,24.46
2017-08-03T04:04:35.432Z,24.47
2017-08-03T04:05:45.363Z,24.47
2017-08-03T04:06:55.308Z,24.45
2017-08-03T04:08:05.551Z,24.5
2017-08-03T04:09:15.510Z,24.46
2017-08-03T04:10:25.743Z,24.52
2017-08-03T04:11:35.974Z,24.49
2017-08-03T04:12:45.891Z,24.47
2017-08-03T04:13:55.804Z,24.37
2017-08-03T04:15:05.424Z,24.46
2017-08-03T04:16:15.651Z,24.45
2017-08-03T04:17:25.888Z,24.46
2017-08-03T04:18:35.832Z,24.37
2017-08-03T04:19:46.087Z,24.42
2017-08-03T04:20:56.015Z,24.43
2017-08-03T04:22:05.617Z,24.43
2017-08-03T04:23:15.552Z,24.3
2017-08-03T04:24:25.785Z,24.43
2017-08-03T04:25:35.727Z,24.43
2017-08-03T04:26:45.967Z,24.42
2017-08-03T04:27:55.586Z,24.4
2017-08-03T04:29:05.814Z,24.28
2017-08-03T04:30:15.433Z,24.34
2017-08-03T04:31:25.376Z,24.42
2017-08-03T04:32:35.315Z,24.32
2017-08-03T04:33:45.573Z,24.43
2017-08-03T04:34:55.497Z,24.4
2017-08-03T04:36:05.746Z,24.46
2017-08-03T04:37:15.749Z,24.46
2017-08-03T04:38:25.083Z,24.43
2017-08-03T04:39:35.038Z,24.42
2017-08-03T04:40:45.273Z,24.46
2017-08-03T04:41:55.213Z,24.47
2017-08-03T04:43:04.838Z,24.5
2017-08-03T04:44:15.066Z,24.53
2017-08-03T04:45:25.003Z,24.61
2017-08-03T04:46:34.629Z,24.57
2017-08-03T04:47:44.560Z,24.65
2017-08-03T04:48:54.481Z,24.68
2017-08-03T04:50:04.092Z,24.71
2017-08-03T04:51:13.718Z,24.68
2017-08-03T04:52:23.950Z,24.65
2017-08-03T04:53:33.874Z,24.67
2017-08-03T04:54:44.115Z,24.68
2017-08-03T04:55:53.734Z,24.76
2017-08-03T04:57:03.975Z,24.78
2017-08-03T04:58:13.909Z,24.71
2017-08-03T04:59:23.529Z,24.81
2017-08-03T05:00:32.858Z,24.81
2017-08-03T05:01:42.797Z,24.83
2017-08-03T05:02:53.028Z,24.88
2017-08-03T05:04:02.654Z,24.9
2017-08-03T05:05:12.903Z,24.95
2017-08-03T05:06:23.133Z,25.06
2017-08-03T05:07:32.777Z,25.03
2017-08-03T05:08:43.024Z,25.03
2017-08-03T05:09:53.270Z,25.03
2017-08-03T05:11:02.894Z,25.05
2017-08-03T05:12:12.526Z,25.1
2017-08-03T05:13:22.463Z,25.1
2017-08-03T05:14:32.096Z,25.17
2017-08-03T05:15:42.034Z,25.17
2017-08-03T05:16:51.948Z,25.18
2017-08-03T05:18:02.190Z,25.24
2017-08-03T05:19:12.129Z,25.21
2017-08-03T05:20:22.068Z,25.25
2017-08-03T05:21:32.056Z,25.3
2017-08-03T05:22:41.999Z,25.33
2017-08-03T05:23:52.238Z,25.3
2017-08-03T05:25:01.875Z,25.35
2017-08-03T05:26:12.130Z,25.38
2017-08-03T05:27:22.047Z,25.38
2017-08-03T05:28:32.288Z,25.38
2017-08-03T05:29:42.541Z,25.45
2017-08-03T05:30:52.490Z,25.38
2017-08-03T05:32:02.740Z,25.5
2017-08-03T05:33:11.780Z,25.51
2017-08-03T05:34:22.015Z,25.45
2017-08-03T05:35:31.636Z,25.52
2017-08-03T05:36:41.556Z,25.55
2017-08-03T05:37:51.481Z,25.52
2017-08-03T05:39:01.420Z,25.54
2017-08-03T05:40:11.031Z,25.51
2017-08-03T05:41:21.043Z,25.52
2017-08-03T05:42:30.660Z,25.57
2017-08-03T05:43:40.905Z,25.6
2017-08-03T05:44:50.547Z,25.58
2017-08-03T05:46:00.782Z,25.65
2017-08-03T05:47:11.021Z,25.67
2017-08-03T05:48:20.941Z,25.64
2017-08-03T05:49:30.561Z,25.6
2017-08-03T05:50:40.825Z,25.65
2017-08-03T05:51:50.765Z,25.67
2017-08-03T05:53:01.497Z,25.69
2017-08-03T05:54:11.120Z,25.67
2017-08-03T05:55:21.069Z,25.64
2017-08-03T05:56:30.461Z,25.61
2017-08-03T05:57:40.381Z,25.77
2017-08-03T05:58:49.996Z,25.73
2017-08-03T06:00:00.230Z,25.72
2017-08-03T06:01:10.476Z,25.76
2017-08-03T06:02:20.412Z,25.72
2017-08-03T06:03:30.035Z,25.73
2017-08-03T06:04:39.364Z,25.69
2017-08-03T06:05:48.668Z,25.75
2017-08-03T06:06:58.912Z,25.7
2017-08-03T06:08:08.871Z,25.7
2017-08-03T06:09:18.804Z,25.7
2017-08-03T06:10:28.417Z,25.7
2017-08-03T06:11:38.346Z,25.65
2017-08-03T06:12:48.265Z,25.73
2017-08-03T06:13:58.491Z,25.7
2017-08-03T06:15:08.411Z,25.75
2017-08-03T06:16:17.762Z,25.79
2017-08-03T06:17:27.727Z,25.79
2017-08-03T06:18:37.970Z,25.75
2017-08-03T06:19:47.905Z,25.76
2017-08-03T06:20:57.557Z,25.77
2017-08-03T06:22:07.484Z,25.82
2017-08-03T06:23:17.411Z,25.8
2017-08-03T06:24:26.774Z,25.8
2017-08-03T06:25:36.102Z,25.8
2017-08-03T06:26:46.057Z,25.82
2017-08-03T06:27:55.999Z,25.82
2017-08-03T06:29:05.627Z,25.9
2017-08-03T06:30:15.870Z,25.9
2017-08-03T06:31:25.494Z,25.8
2017-08-03T06:32:35.119Z,25.88
2017-08-03T06:33:44.750Z,25.83
2017-08-03T06:34:55.009Z,25.8
2017-08-03T06:36:04.958Z,25.95
2017-08-03T06:37:15.192Z,25.83
2017-08-03T06:38:25.135Z,25.87
2017-08-03T06:39:35.085Z,25.9
2017-08-03T06:40:44.408Z,25.92
2017-08-03T06:41:54.033Z,25.91
2017-08-03T06:43:03.980Z,25.91
2017-08-03T06:44:14.228Z,25.85
2017-08-03T06:45:24.473Z,25.87
2017-08-03T06:46:34.399Z,25.94
2017-08-03T06:47:44.341Z,25.92
2017-08-03T06:48:54.585Z,25.88
2017-08-03T06:50:04.512Z,25.94
2017-08-03T06:51:14.431Z,25.9
2017-08-03T06:52:24.052Z,25.88
2017-08-03T06:53:33.984Z,25.87
2017-08-03T06:54:43.656Z,25.94
2017-08-03T06:55:53.585Z,25.91
2017-08-03T06:57:03.517Z,25.88
2017-08-03T06:58:13.745Z,25.95
2017-08-03T06:59:24.000Z,25.9
2017-08-03T07:00:33.915Z,25.92
2017-08-03T07:01:43.847Z,25.91
2017-08-03T07:02:53.529Z,25.91
2017-08-03T07:04:03.763Z,25.95
2017-08-03T07:05:14.040Z,25.91
2017-08-03T07:06:24.279Z,25.94
2017-08-03T07:07:33.908Z,25.98
2017-08-03T07:08:43.559Z,25.95
2017-08-03T07:09:53.476Z,25.95
2017-08-03T07:11:03.393Z,25.97
2017-08-03T07:12:13.018Z,25.97
2017-08-03T07:13:22.939Z,25.95
2017-08-03T07:14:32.884Z,25.94
2017-08-03T07:15:42.855Z,25.95
2017-08-03T07:16:52.803Z,25.97
2017-08-03T07:18:02.757Z,25.94
2017-08-03T07:19:12.733Z,25.97
2017-08-03T07:20:22.662Z,25.95
2017-08-03T07:21:32.941Z,25.97
2017-08-03T07:22:42.874Z,25.98
2017-08-03T07:23:53.133Z,25.9
2017-08-03T07:25:03.066Z,25.97
2017-08-03T07:26:12.412Z,25.94
2017-08-03T07:27:22.334Z,25.9
2017-08-03T07:28:32.269Z,25.92
2017-08-03T07:29:42.208Z,25.94
2017-08-03T07:30:52.139Z,26.05
2017-08-03T07:32:02.393Z,26.02
2017-08-03T07:33:12.335Z,26.06
2017-08-03T07:34:22.282Z,26.02
2017-08-03T07:35:32.230Z,25.95
2017-08-03T07:36:42.173Z,26.01
2017-08-03T07:37:52.100Z,25.91
2017-08-03T07:39:02.359Z,26.05
2017-08-03T07:40:12.608Z,26.01
2017-08-03T07:41:22.550Z,25.98
2017-08-03T07:42:31.869Z,26.01
2017-08-03T07:43:42.112Z,26.01
2017-08-03T07:44:52.370Z,25.97
2017-08-03T07:46:02.305Z,25.97
2017-08-03T07:47:11.915Z,26.02
2017-08-03T07:48:21.537Z,25.95
2017-08-03T07:49:31.191Z,25.97
2017-08-03T07:50:41.134Z,25.98
2017-08-03T07:51:51.071Z,25.99
2017-08-03T07:53:01.326Z,25.94
2017-08-03T07:54:10.951Z,25.94
2017-08-03T07:55:20.898Z,25.97
2017-08-03T07:56:30.871Z,25.98
2017-08-03T07:57:40.811Z,25.99
2017-08-03T07:58:51.061Z,26.01
2017-08-03T08:00:01.016Z,25.97
2017-08-03T08:01:10.643Z,26.02
2017-08-03T08:02:20.660Z,25.99
2017-08-03T08:03:30.917Z,25.95
2017-08-03T08:04:40.857Z,26.01
2017-08-03T08:05:50.786Z,26.01
2017-08-03T08:07:00.438Z,25.99
2017-08-03T08:08:10.083Z,26.01
2017-08-03T08:09:20.043Z,25.97
2017-08-03T08:10:30.304Z,25.99
2017-08-03T08:11:40.568Z,25.99
2017-08-03T08:12:50.214Z,25.99
2017-08-03T08:14:00.151Z,26.07
2017-08-03T08:15:10.440Z,26.09
2017-08-03T08:16:20.396Z,26.06
2017-08-03T08:17:30.653Z,26.13
2017-08-03T08:18:40.901Z,26.12
2017-08-03T08:19:50.540Z,26.07
2017-08-03T08:21:00.184Z,26.09
2017-08-03T08:22:09.837Z,26.1
2017-08-03T08:23:19.483Z,26.13
2017-08-03T08:24:29.781Z,26.12
2017-08-03T08:25:40.031Z,26.1
2017-08-03T08:26:49.662Z,26.13
2017-08-03T08:27:59.312Z,26.13
2017-08-03T08:29:09.545Z,26.09
2017-08-03T08:30:19.473Z,26.15
2017-08-03T08:31:29.446Z,26.21
2017-08-03T08:32:39.730Z,26.2
2017-08-03T08:33:49.669Z,26.12
2017-08-03T08:34:59.611Z,26.07
2017-08-03T08:36:09.270Z,26.2
2017-08-03T08:37:19.522Z,26.1
2017-08-03T08:38:29.751Z,26.05
2017-08-03T08:39:40.007Z,26.1
2017-08-03T08:40:49.622Z,26.2
2017-08-03T08:41:59.243Z,26.09
2017-08-03T08:43:08.902Z,26.13
2017-08-03T08:44:18.848Z,26.15
2017-08-03T08:45:28.781Z,26.18
2017-08-03T08:46:38.409Z,26.23
2017-08-03T08:47:48.347Z,26.18
2017-08-03T08:48:58.259Z,26.17
2017-08-03T08:50:08.493Z,26.23
2017-08-03T08:51:18.721Z,26.21
2017-08-03T08:52:28.372Z,26.29
2017-08-03T08:53:38.623Z,26.3
2017-08-03T08:54:48.547Z,26.26
2017-08-03T08:55:58.172Z,26.28
2017-08-03T08:57:07.823Z,26.3
2017-08-03T08:58:18.066Z,26.32
2017-08-03T08:59:27.990Z,26.26
2017-08-03T09:00:37.954Z,26.29
2017-08-03T09:01:47.922Z,26.33
2017-08-03T09:02:57.560Z,26.29
2017-08-03T09:04:07.509Z,26.3
2017-08-03T09:05:17.134Z,26.3
2017-08-03T09:06:26.790Z,26.32
2017-08-03T09:07:36.742Z,26.28
2017-08-03T09:08:46.365Z,26.3
2017-08-03T09:09:56.613Z,26.29
2017-08-03T09:11:06.565Z,26.29
2017-08-03T09:12:16.516Z,26.3
2017-08-03T09:13:26.148Z,26.3
2017-08-03T09:14:36.426Z,26.33
2017-08-03T09:15:46.357Z,26.33
2017-08-03T09:16:55.987Z,26.26
2017-08-03T09:18:06.240Z,26.33
2017-08-03T09:19:16.484Z,26.23
2017-08-03T09:20:26.415Z,26.26
2017-08-03T09:21:36.382Z,26.32
2017-08-03T09:22:46.321Z,26.29
2017-08-03T09:23:56.268Z,26.26
2017-08-03T09:25:06.508Z,26.32
2017-08-03T09:26:16.153Z,26.3
2017-08-03T09:27:26.407Z,26.26
2017-08-03T09:28:36.366Z,26.29
2017-08-03T09:29:45.684Z,26.28
2017-08-03T09:30:55.632Z,26.29
2017-08-03T09:32:05.282Z,26.36
2017-08-03T09:33:15.226Z,26.32
2017-08-03T09:34:25.182Z,26.36
2017-08-03T09:35:35.438Z,26.33
2017-08-03T09:36:45.686Z,26.36
2017-08-03T09:37:55.631Z,26.44
2017-08-03T09:39:05.582Z,26.37
2017-08-03T09:40:15.529Z,26.43
2017-08-03T09:41:25.456Z,26.37
2017-08-03T09:42:35.693Z,26.44
2017-08-03T09:43:45.316Z,26.45
2017-08-03T09:44:54.676Z,26.47
2017-08-03T09:46:04.985Z,26.47
2017-08-03T09:47:14.923Z,26.47
2017-08-03T09:48:24.549Z,26.54
2017-08-03T09:49:34.176Z,26.48
2017-08-03T09:50:44.154Z,26.5
2017-08-03T09:51:54.474Z,26.58
2017-08-03T09:53:04.102Z,26.55
2017-08-03T09:54:14.347Z,26.65
2017-08-03T09:55:24.280Z,26.55
2017-08-03T09:56:34.222Z,26.62
2017-08-03T09:57:44.173Z,26.58
2017-08-03T09:58:54.105Z,26.66
2017-08-03T10:00:04.039Z,26.65
2017-08-03T10:01:13.691Z,26.62
2017-08-03T10:02:23.950Z,26.62
2017-08-03T10:03:33.880Z,26.65
2017-08-03T10:04:43.512Z,26.67
2017-08-03T10:05:53.452Z,26.67
2017-08-03T10:07:03.390Z,26.63
2017-08-03T10:08:12.728Z,26.69
2017-08-03T10:09:22.967Z,26.66
2017-08-03T10:10:33.218Z,26.58
2017-08-03T10:11:43.477Z,26.62
2017-08-03T10:12:53.405Z,26.67
2017-08-03T10:14:02.733Z,26.63
2017-08-03T10:15:12.994Z,26.76
2017-08-03T10:16:23.257Z,26.72
2017-08-03T10:17:33.501Z,26.75
2017-08-03T10:18:43.438Z,26.7
2017-08-03T10:19:53.061Z,26.72
2017-08-03T10:21:03.322Z,26.7
2017-08-03T10:22:13.671Z,26.81
2017-08-03T10:23:23.600Z,26.73
2017-08-03T10:24:33.844Z,26.7
2017-08-03T10:25:43.785Z,26.8
2017-08-03T10:26:53.745Z,26.76
2017-08-03T10:28:03.381Z,26.77
2017-08-03T10:29:13.645Z,26.81
2017-08-03T10:30:23.581Z,26.7
2017-08-03T10:31:33.527Z,26.8
2017-08-03T10:32:43.151Z,26.76
2017-08-03T10:33:53.075Z,26.76
2017-08-03T10:35:02.714Z,26.72
2017-08-03T10:36:12.355Z,26.8
2017-08-03T10:37:22.333Z,26.7
2017-08-03T10:38:32.598Z,26.76
2017-08-03T10:39:42.596Z,26.8
2017-08-03T10:40:52.887Z,26.72
2017-08-03T10:42:02.250Z,26.7
2017-08-03T10:43:11.609Z,26.65
2017-08-03T10:44:21.601Z,26.65
2017-08-03T10:45:31.296Z,26.58
2017-08-03T10:46:41.564Z,26.67
2017-08-03T10:47:51.193Z,26.63
2017-08-03T10:49:00.841Z,26.7
2017-08-03T10:50:10.808Z,26.7
2017-08-03T10:51:20.471Z,26.65
2017-08-03T10:52:30.718Z,26.66
2017-08-03T10:53:40.651Z,26.66
2017-08-03T10:54:50.276Z,26.55
2017-08-03T10:55:59.909Z,26.54
2017-08-03T10:57:09.851Z,26.58
2017-08-03T10:58:20.097Z,26.63
2017-08-03T10:59:30.359Z,26.54
2017-08-03T11:00:39.686Z,26.51
2017-08-03T11:01:49.318Z,26.57
2017-08-03T11:02:58.643Z,26.6
2017-08-03T11:04:07.993Z,26.6
2017-08-03T11:05:17.958Z,26.55
2017-08-03T11:06:27.927Z,26.62
2017-08-03T11:07:38.200Z,26.6
2017-08-03T11:08:47.856Z,26.63
2017-08-03T11:09:57.794Z,26.67
2017-08-03T11:11:07.130Z,26.65
2017-08-03T11:12:16.772Z,26.65
2017-08-03T11:13:26.093Z,26.63
2017-08-03T11:14:36.348Z,26.7
2017-08-03T11:15:45.675Z,26.58
2017-08-03T11:16:55.625Z,26.77
2017-08-03T11:18:05.263Z,26.72
2017-08-03T11:19:14.984Z,26.81
2017-08-03T11:20:24.940Z,26.81
2017-08-03T11:21:35.174Z,26.7
2017-08-03T11:22:44.511Z,26.8
2017-08-03T11:23:54.777Z,26.72
2017-08-03T11:25:04.129Z,26.8
2017-08-03T11:26:14.081Z,26.75
2017-08-03T11:27:23.431Z,26.82
2017-08-03T11:28:33.379Z,26.8
2017-08-03T11:29:43.663Z,26.76
2017-08-03T11:30:53.612Z,26.77
2017-08-03T11:32:03.244Z,26.77
2017-08-03T11:33:12.902Z,26.81
2017-08-03T11:34:23.163Z,26.75
2017-08-03T11:35:32.790Z,26.76
2017-08-03T11:36:43.059Z,26.75
2017-08-03T11:37:53.318Z,26.75
2017-08-03T11:39:02.963Z,26.75
2017-08-03T11:40:13.210Z,26.85
2017-08-03T11:41:22.865Z,26.69
2017-08-03T11:42:33.110Z,26.87
2017-08-03T11:43:43.037Z,26.76
2017-08-03T11:44:53.386Z,26.8
2017-08-03T11:46:03.032Z,26.88
2017-08-03T11:47:12.981Z,26.84
2017-08-03T11:48:23.329Z,26.87
2017-08-03T11:49:32.645Z,26.87
2017-08-03T11:50:42.910Z,26.87
2017-08-03T11:51:53.164Z,26.87
2017-08-03T11:53:03.422Z,26.89
2017-08-03T11:54:13.147Z,26.87
2017-08-03T11:55:23.427Z,26.88
2017-08-03T11:56:33.411Z,26.84
2017-08-03T11:57:43.677Z,26.77
2017-08-03T11:58:53.423Z,26.87
2017-08-03T12:00:03.674Z,26.85
2017-08-03T12:01:13.017Z,26.88
2017-08-03T12:02:23.302Z,26.81
2017-08-03T12:03:33.287Z,26.87
2017-08-03T12:04:42.995Z,26.81
2017-08-03T12:05:52.927Z,26.88
2017-08-03T12:07:02.582Z,26.72
2017-08-03T12:08:12.832Z,26.82
2017-08-03T12:09:22.795Z,26.84
2017-08-03T12:10:32.449Z,26.87
2017-08-03T12:11:42.705Z,26.87
2017-08-03T12:12:52.352Z,26.77
2017-08-03T12:14:02.597Z,26.89
2017-08-03T12:15:12.567Z,26.88
2017-08-03T12:16:22.881Z,26.8
2017-08-03T12:17:33.164Z,26.8
2017-08-03T12:18:43.461Z,26.84
2017-08-03T12:19:53.416Z,26.87
2017-08-03T12:21:03.414Z,26.84
2017-08-03T12:22:13.352Z,26.87
2017-08-03T12:23:23.599Z,26.85
2017-08-03T12:24:32.932Z,26.89
2017-08-03T12:25:43.200Z,26.87
2017-08-03T12:26:53.481Z,26.82
2017-08-03T12:28:03.716Z,26.8
2017-08-03T12:29:13.431Z,26.8
2017-08-03T12:30:23.377Z,26.84
2017-08-03T12:31:33.616Z,26.81
2017-08-03T12:32:43.256Z,26.87
2017-08-03T12:33:53.247Z,26.76
2017-08-03T12:35:03.494Z,26.84
2017-08-03T12:36:13.449Z,26.77
2017-08-03T12:37:22.774Z,26.84
2017-08-03T12:38:33.132Z,26.88
2017-08-03T12:39:43.472Z,26.82
2017-08-03T12:40:52.790Z,26.85
2017-08-03T12:42:02.160Z,26.82
2017-08-03T12:43:12.114Z,26.81
2017-08-03T12:44:22.098Z,26.87
2017-08-03T12:45:32.033Z,26.77
2017-08-03T12:46:41.963Z,26.77
2017-08-03T12:47:51.857Z,26.84
2017-08-03T12:49:00.866Z,26.81
2017-08-03T12:50:11.108Z,26.77
2017-08-03T12:51:21.041Z,26.85
2017-08-03T12:52:30.765Z,26.75
2017-08-03T12:53:40.753Z,26.8
2017-08-03T12:54:50.703Z,26.85
2017-08-03T12:56:00.660Z,26.82
2017-08-03T12:57:10.317Z,26.73
2017-08-03T12:58:20.366Z,26.8
2017-08-03T12:59:29.398Z,26.75
2017-08-03T13:00:39.346Z,26.8
2017-08-03T13:01:49.311Z,26.85
2017-08-03T13:02:58.935Z,26.8
2017-08-03T13:04:08.875Z,26.77
2017-08-03T13:05:18.206Z,26.77
2017-08-03T13:06:28.495Z,26.81
2017-08-03T13:07:38.753Z,26.75
2017-08-03T13:08:48.715Z,26.7
2017-08-03T13:09:58.953Z,26.75
2017-08-03T13:11:09.196Z,26.7
2017-08-03T13:12:19.128Z,26.8
2017-08-03T13:13:29.359Z,26.76
2017-08-03T13:14:39.281Z,26.81
2017-08-03T13:15:48.597Z,26.62
2017-08-03T13:16:58.547Z,26.75
2017-08-03T13:18:08.524Z,26.69
2017-08-03T13:19:18.461Z,26.75
2017-08-03T13:20:28.398Z,26.66
2017-08-03T13:21:38.030Z,26.69
2017-08-03T13:22:47.976Z,26.73
2017-08-03T13:23:57.910Z,26.75
2017-08-03T13:25:08.187Z,26.72
2017-08-03T13:26:18.450Z,26.75
2017-08-03T13:27:28.703Z,26.72
2017-08-03T13:28:38.339Z,26.76
2017-08-03T13:29:47.980Z,26.75
2017-08-03T13:30:57.931Z,26.7
2017-08-03T13:32:07.592Z,26.77
2017-08-03T13:33:17.229Z,26.73
2017-08-03T13:34:27.482Z,26.8
2017-08-03T13:35:37.451Z,26.67
2017-08-03T13:36:47.402Z,26.69
2017-08-03T13:37:57.655Z,26.66
2017-08-03T13:39:07.329Z,26.63
2017-08-03T13:40:17.590Z,26.76
2017-08-03T13:41:27.858Z,26.7
2017-08-03T13:42:37.789Z,26.75
2017-08-03T13:43:47.755Z,26.6
2017-08-03T13:44:57.737Z,26.73
2017-08-03T13:46:08.005Z,26.65
2017-08-03T13:47:18.272Z,26.73
2017-08-03T13:48:28.204Z,26.77
2017-08-03T13:49:37.543Z,26.73
2017-08-03T13:50:47.165Z,26.62
2017-08-03T13:51:57.101Z,26.65
2017-08-03T13:53:06.725Z,26.66
2017-08-03T13:54:16.975Z,26.63
2017-08-03T13:55:26.604Z,26.69
2017-08-03T13:56:36.229Z,26.75
2017-08-03T13:57:46.175Z,26.65
2017-08-03T13:58:56.104Z,26.75
2017-08-03T14:00:05.423Z,26.69
2017-08-03T14:01:15.352Z,26.65
2017-08-03T14:02:25.617Z,26.73
2017-08-03T14:03:35.557Z,26.73
2017-08-03T14:04:44.881Z,26.8
2017-08-03T14:05:54.818Z,26.67
2017-08-03T14:07:05.066Z,26.76
2017-08-03T14:08:15.341Z,26.62
2017-08-03T14:09:25.303Z,26.75
2017-08-03T14:10:35.572Z,26.7
2017-08-03T14:11:45.232Z,26.75
2017-08-03T14:12:54.866Z,26.75
2017-08-03T14:14:04.516Z,26.75
2017-08-03T14:15:14.461Z,26.73
2017-08-03T14:16:24.711Z,26.81
2017-08-03T14:17:34.974Z,26.75
2017-08-03T14:18:44.601Z,26.8
2017-08-03T14:19:54.239Z,26.73
2017-08-03T14:21:04.182Z,26.75
2017-08-03T14:22:14.143Z,26.81
2017-08-03T14:23:24.419Z,26.75
2017-08-03T14:24:34.685Z,26.8
2017-08-03T14:25:44.620Z,26.84
2017-08-03T14:26:54.878Z,26.8
2017-08-03T14:28:04.210Z,26.87
2017-08-03T14:29:14.166Z,26.72
2017-08-03T14:30:24.441Z,26.82
2017-08-03T14:31:34.380Z,26.87
2017-08-03T14:32:44.001Z,26.87
2017-08-03T14:33:53.997Z,26.81
2017-08-03T14:35:03.672Z,26.87
2017-08-03T14:36:13.938Z,26.82
2017-08-03T14:37:24.200Z,26.84
2017-08-03T14:38:34.465Z,26.87
2017-08-03T14:39:44.743Z,26.87
2017-08-03T14:40:54.995Z,26.87
2017-08-03T14:42:04.654Z,26.85
2017-08-03T14:43:14.290Z,26.81
2017-08-03T14:44:23.934Z,26.85
2017-08-03T14:45:33.590Z,26.82
2017-08-03T14:46:43.888Z,26.87
2017-08-03T14:47:53.839Z,26.87
2017-08-03T14:49:03.805Z,26.87
2017-08-03T14:50:13.755Z,26.85
2017-08-03T14:51:24.045Z,26.84
2017-08-03T14:52:33.674Z,26.92
2017-08-03T14:53:43.610Z,26.87
2017-08-03T14:54:53.555Z,26.81
2017-08-03T14:56:03.202Z,26.85
2017-08-03T14:57:13.480Z,26.88
2017-08-03T14:58:23.125Z,26.88
2017-08-03T14:59:33.077Z,26.87
2017-08-03T15:00:43.028Z,26.84
2017-08-03T15:01:53.307Z,26.87
2017-08-03T15:03:02.929Z,26.75
2017-08-03T15:04:12.868Z,26.75
2017-08-03T15:05:23.116Z,26.75
2017-08-03T15:06:33.064Z,26.77
2017-08-03T15:07:42.697Z,26.77
2017-08-03T15:08:52.964Z,26.81
2017-08-03T15:10:02.916Z,26.85
2017-08-03T15:11:12.596Z,26.84